Time;durP1;ratioP1;P1;durP2;ratioP2;P2;SDS_P1;SDS_P2;PMS_P1;PMS_P2;Temp;Humidity;BMP_temperature;BMP_pressure;BME280_temperature;BME280_humidity;BME280_pressure;Samples;Min_cycle;Max_cycle;Signal;HPM_P1;HPM_P2
2022/10/24 00:01:24;;;;;;;;;;;15.00;99.90;;;;;;5063171;28;20007;-59
2022/10/24 00:03:51;;;;;;;;;;;15.00;99.90;;;;;;5062623;28;21050;-59
2022/10/24 00:06:19;;;;;;;;;;;15.00;99.90;;;;;;5062694;28;19928;-59
2022/10/24 00:08:46;;;;;;;;;;;15.00;99.90;;;;;;5061466;28;19935;-59
2022/10/24 00:11:14;;;;;;;;;;;15.00;99.90;;;;;;5062701;28;19936;-59
2022/10/24 00:13:41;;;;;;;;;;;15.00;99.90;;;;;;5061898;28;19932;-59
2022/10/24 00:16:08;;;;;;;;;;;15.10;99.90;;;;;;5063964;28;19936;-59
2022/10/24 00:18:35;;;;;;;;;;;15.00;99.90;;;;;;5063789;28;19933;-59
2022/10/24 00:21:02;;;;;;;;;;;15.00;99.90;;;;;;5062643;28;19929;-59
2022/10/24 00:23:30;;;;;;;;;;;15.00;99.90;;;;;;5061954;28;19933;-59
2022/10/24 00:26:00;;;;;;;;;;;15.00;99.90;;;;;;5062874;28;19928;-60
2022/10/24 00:28:27;;;;;;;;;;;15.00;99.90;;;;;;5062029;28;20031;-59
2022/10/24 00:30:53;;;;;;;;;;;15.00;99.90;;;;;;5062066;28;19928;-59
2022/10/24 00:33:20;;;;;;;;;;;15.00;99.90;;;;;;5061247;28;20818;-59
2022/10/24 00:35:47;;;;;;;;;;;15.00;99.90;;;;;;5061182;28;20307;-59
2022/10/24 00:38:13;;;;;;;;;;;15.00;99.90;;;;;;5060820;28;19928;-59
2022/10/24 00:40:41;;;;;;;;;;;15.00;99.90;;;;;;5062238;28;19928;-59
2022/10/24 00:43:12;;;;;;;;;;;15.00;99.90;;;;;;5061826;28;19932;-59
2022/10/24 00:45:41;;;;;;;;;;;15.00;99.90;;;;;;5061710;28;19929;-59
2022/10/24 00:48:13;;;;;;;;;;;15.00;99.90;;;;;;5062181;28;19983;-59
2022/10/24 00:50:40;;;;;;;;;;;15.00;99.90;;;;;;5061914;28;20382;-59
2022/10/24 00:53:07;;;;;;;;;;;15.00;99.90;;;;;;5062161;28;19933;-59
2022/10/24 00:55:33;;;;;;;;;;;15.00;99.90;;;;;;5062396;28;19933;-59
2022/10/24 00:58:04;;;;;;;;;;;15.00;99.90;;;;;;5062533;28;19929;-59
2022/10/24 01:00:32;;;;;;;;;;;15.00;99.90;;;;;;5062578;28;19936;-59
2022/10/24 01:02:59;;;;;;;;;;;15.00;99.90;;;;;;5061652;28;20463;-59
2022/10/24 01:05:27;;;;;;;;;;;15.00;99.90;;;;;;5062018;28;19928;-59
2022/10/24 01:07:59;;;;;;;;;;;15.00;99.90;;;;;;5061731;28;19929;-59
2022/10/24 01:10:34;;;;;;;;;;;15.10;99.90;;;;;;5062790;28;19929;-59
2022/10/24 01:13:09;;;;;;;;;;;15.00;99.90;;;;;;5062806;28;19932;-59
2022/10/24 01:15:38;;;;;;;;;;;15.10;99.90;;;;;;5061746;28;19935;-59
2022/10/24 01:18:09;;;;;;;;;;;15.00;99.90;;;;;;5061856;28;20403;-59
2022/10/24 01:20:51;;;;;;;;;;;15.00;99.90;;;;;;5061711;28;19933;-59
2022/10/24 01:23:27;;;;;;;;;;;15.10;99.90;;;;;;5061584;28;20040;-59
2022/10/24 01:25:59;;;;;;;;;;;15.00;99.90;;;;;;5062710;28;19935;-59
2022/10/24 01:28:29;;;;;;;;;;;15.10;99.90;;;;;;5062797;28;19929;-59
2022/10/24 01:31:02;;;;;;;;;;;15.10;99.90;;;;;;5062755;28;19940;-59
2022/10/24 01:33:31;;;;;;;;;;;15.10;99.90;;;;;;5061701;28;20324;-59
2022/10/24 01:36:00;;;;;;;;;;;15.10;99.90;;;;;;5061623;28;21048;-59
2022/10/24 01:38:30;;;;;;;;;;;15.20;99.90;;;;;;5060882;28;19929;-59
2022/10/24 01:40:59;;;;;;;;;;;15.10;99.90;;;;;;5061394;28;19928;-60
2022/10/24 01:43:27;;;;;;;;;;;15.10;99.90;;;;;;5059636;28;19940;-59
2022/10/24 01:45:57;;;;;;;;;;;15.10;99.90;;;;;;5062215;28;20426;-59
2022/10/24 01:48:25;;;;;;;;;;;15.10;99.90;;;;;;5062043;28;20311;-59
2022/10/24 01:50:53;;;;;;;;;;;15.10;99.90;;;;;;5062241;28;19939;-59
2022/10/24 01:53:20;;;;;;;;;;;15.10;99.90;;;;;;5060921;28;20400;-59
2022/10/24 01:55:48;;;;;;;;;;;15.10;99.90;;;;;;5061627;28;19935;-59
2022/10/24 01:58:15;;;;;;;;;;;15.10;99.90;;;;;;5060814;28;19933;-59
2022/10/24 02:00:43;;;;;;;;;;;15.20;99.90;;;;;;5061234;28;19929;-59
2022/10/24 02:03:16;;;;;;;;;;;15.20;99.90;;;;;;5061357;28;19940;-59
2022/10/24 02:05:46;;;;;;;;;;;15.20;99.90;;;;;;5061216;28;19952;-60
2022/10/24 02:08:13;;;;;;;;;;;15.20;99.90;;;;;;5061460;28;19928;-59
2022/10/24 02:10:43;;;;;;;;;;;15.20;99.90;;;;;;5061536;28;19929;-59
2022/10/24 02:13:14;;;;;;;;;;;15.20;99.90;;;;;;5060388;28;20401;-59
2022/10/24 02:15:43;;;;;;;;;;;15.30;99.90;;;;;;5061508;28;19935;-59
2022/10/24 02:18:10;;;;;;;;;;;15.30;99.90;;;;;;5060601;28;19929;-59
2022/10/24 02:20:39;;;;;;;;;;;15.30;99.90;;;;;;5059732;28;19929;-59
2022/10/24 02:23:12;;;;;;;;;;;15.30;99.90;;;;;;5061534;28;19932;-59
2022/10/24 02:25:43;;;;;;;;;;;15.30;99.90;;;;;;5060165;28;19929;-59
2022/10/24 02:28:11;;;;;;;;;;;15.30;99.90;;;;;;5062099;28;20419;-59
2022/10/24 02:30:40;;;;;;;;;;;15.40;99.90;;;;;;5061244;28;19936;-59
2022/10/24 02:33:07;;;;;;;;;;;15.40;99.90;;;;;;5060362;28;20411;-59
2022/10/24 02:35:39;;;;;;;;;;;15.40;99.90;;;;;;5058703;28;19976;-59
2022/10/24 02:38:11;;;;;;;;;;;15.40;99.90;;;;;;5059532;28;20738;-59
2022/10/24 02:40:39;;;;;;;;;;;15.40;99.90;;;;;;5060210;28;19929;-59
2022/10/24 02:43:06;;;;;;;;;;;15.50;99.90;;;;;;5061051;28;19976;-60
2022/10/24 02:45:34;;;;;;;;;;;15.40;99.90;;;;;;5061990;28;19936;-59
2022/10/24 02:48:02;;;;;;;;;;;15.50;99.90;;;;;;5061068;28;20296;-59
2022/10/24 02:50:31;;;;;;;;;;;15.40;99.90;;;;;;5061301;28;19928;-60
2022/10/24 02:52:57;;;;;;;;;;;15.40;99.90;;;;;;5061104;28;20175;-59
2022/10/24 02:55:25;;;;;;;;;;;15.40;99.90;;;;;;5059094;28;20762;-58
2022/10/24 02:57:52;;;;;;;;;;;15.40;99.90;;;;;;5061049;28;20394;-59
2022/10/24 03:00:19;;;;;;;;;;;15.50;99.90;;;;;;5060411;28;19935;-59
2022/10/24 03:02:45;;;;;;;;;;;15.50;99.90;;;;;;5060521;28;19933;-59
2022/10/24 03:05:12;;;;;;;;;;;15.40;99.90;;;;;;5061878;28;19936;-60
2022/10/24 03:07:39;;;;;;;;;;;15.50;99.90;;;;;;5060693;28;19929;-59
2022/10/24 03:10:06;;;;;;;;;;;15.40;99.90;;;;;;5059997;28;19928;-59
2022/10/24 03:12:34;;;;;;;;;;;15.40;99.90;;;;;;5059865;28;22147;-59
2022/10/24 03:15:00;;;;;;;;;;;15.40;99.90;;;;;;5059684;28;19929;-59
2022/10/24 03:17:27;;;;;;;;;;;15.40;99.90;;;;;;5059290;28;19940;-59
2022/10/24 03:19:53;;;;;;;;;;;15.40;99.90;;;;;;5059026;28;19928;-59
2022/10/24 03:22:20;;;;;;;;;;;15.40;99.90;;;;;;5060341;28;20031;-59
2022/10/24 03:24:47;;;;;;;;;;;15.40;99.90;;;;;;5060120;28;20806;-59
2022/10/24 03:27:14;;;;;;;;;;;15.40;99.90;;;;;;5059024;28;20578;-59
2022/10/24 03:29:42;;;;;;;;;;;15.40;99.90;;;;;;5060057;28;19928;-59
2022/10/24 03:32:08;;;;;;;;;;;15.40;99.90;;;;;;5061189;28;19933;-59
2022/10/24 03:34:35;;;;;;;;;;;15.50;99.90;;;;;;5063116;28;19929;-59
2022/10/24 03:37:02;;;;;;;;;;;15.40;99.90;;;;;;5062651;28;19940;-59
2022/10/24 03:39:28;;;;;;;;;;;15.40;99.90;;;;;;5062541;28;19928;-59
2022/10/24 03:41:55;;;;;;;;;;;15.40;99.90;;;;;;5063275;28;19940;-59
2022/10/24 03:44:22;;;;;;;;;;;15.40;99.90;;;;;;5062691;28;20273;-59
2022/10/24 03:46:50;;;;;;;;;;;15.40;99.90;;;;;;5063281;28;19929;-59
2022/10/24 03:49:16;;;;;;;;;;;15.40;99.90;;;;;;5061996;28;19928;-59
2022/10/24 03:51:43;;;;;;;;;;;15.40;99.90;;;;;;5062761;28;20722;-59
2022/10/24 03:54:10;;;;;;;;;;;15.40;99.90;;;;;;5062337;28;19937;-59
2022/10/24 03:56:37;;;;;;;;;;;15.40;99.90;;;;;;5062429;28;20471;-59
2022/10/24 03:59:03;;;;;;;;;;;15.40;99.90;;;;;;5062528;28;19936;-59
2022/10/24 04:01:30;;;;;;;;;;;15.40;99.90;;;;;;5062983;28;20055;-59
2022/10/24 04:03:58;;;;;;;;;;;15.40;99.90;;;;;;5062549;28;19929;-59
2022/10/24 04:06:25;;;;;;;;;;;15.50;99.90;;;;;;5061849;28;19935;-59
2022/10/24 04:08:51;;;;;;;;;;;15.50;99.90;;;;;;5061237;28;21293;-59
2022/10/24 04:11:18;;;;;;;;;;;15.50;99.90;;;;;;5063614;28;19933;-59
2022/10/24 04:13:45;;;;;;;;;;;15.50;99.90;;;;;;5062283;28;19932;-59
2022/10/24 04:16:11;;;;;;;;;;;15.50;99.90;;;;;;5062455;28;19928;-59
2022/10/24 04:18:38;;;;;;;;;;;15.50;99.90;;;;;;5062204;28;20426;-59
2022/10/24 04:21:06;;;;;;;;;;;15.40;99.90;;;;;;5062102;28;19942;-59
2022/10/24 04:23:37;;;;;;;;;;;15.40;99.90;;;;;;5062883;28;19950;-59
2022/10/24 04:26:04;;;;;;;;;;;15.40;99.90;;;;;;5061869;28;19960;-59
2022/10/24 04:28:30;;;;;;;;;;;15.40;99.90;;;;;;5061696;28;19928;-59
2022/10/24 04:30:57;;;;;;;;;;;15.40;99.90;;;;;;5062284;28;20410;-59
2022/10/24 04:33:24;;;;;;;;;;;15.30;99.90;;;;;;5061102;28;20062;-59
2022/10/24 04:35:50;;;;;;;;;;;15.30;99.90;;;;;;5059781;28;19928;-59
2022/10/24 04:38:18;;;;;;;;;;;15.30;99.90;;;;;;5061854;28;19936;-59
2022/10/24 04:40:45;;;;;;;;;;;15.30;99.90;;;;;;5060539;28;19933;-60
2022/10/24 04:43:12;;;;;;;;;;;15.20;99.90;;;;;;5061994;28;19997;-59
2022/10/24 04:45:39;;;;;;;;;;;15.20;99.90;;;;;;5061779;28;19935;-59
2022/10/24 04:48:06;;;;;;;;;;;15.30;99.90;;;;;;5061375;28;19936;-59
2022/10/24 04:50:32;;;;;;;;;;;15.20;99.90;;;;;;5061638;28;20390;-59
2022/10/24 04:53:00;;;;;;;;;;;15.20;99.90;;;;;;5062068;28;20382;-59
2022/10/24 04:55:28;;;;;;;;;;;15.20;99.90;;;;;;5062548;28;19935;-59
2022/10/24 04:57:55;;;;;;;;;;;15.20;99.90;;;;;;5062000;28;19928;-59
2022/10/24 05:00:22;;;;;;;;;;;15.20;99.90;;;;;;5062304;28;19932;-59
2022/10/24 05:02:48;;;;;;;;;;;15.10;99.90;;;;;;5063046;28;19928;-59
2022/10/24 05:05:15;;;;;;;;;;;15.10;99.90;;;;;;5062005;28;19928;-59
2022/10/24 05:07:42;;;;;;;;;;;15.10;99.90;;;;;;5062832;28;19939;-59
2022/10/24 05:10:09;;;;;;;;;;;15.10;99.90;;;;;;5063024;28;19971;-59
2022/10/24 05:12:37;;;;;;;;;;;15.10;99.90;;;;;;5061258;28;19933;-59
2022/10/24 05:15:04;;;;;;;;;;;15.10;99.90;;;;;;5062562;28;19936;-59
2022/10/24 05:17:31;;;;;;;;;;;15.10;99.90;;;;;;5061565;28;20395;-59
2022/10/24 05:19:58;;;;;;;;;;;15.00;99.90;;;;;;5061917;28;19972;-59
2022/10/24 05:22:24;;;;;;;;;;;15.10;99.90;;;;;;5061869;28;19935;-59
2022/10/24 05:24:51;;;;;;;;;;;15.10;99.90;;;;;;5062332;28;19944;-59
2022/10/24 05:27:23;;;;;;;;;;;15.00;99.90;;;;;;5062304;28;19928;-59
2022/10/24 05:29:51;;;;;;;;;;;15.00;99.90;;;;;;5061597;28;20354;-59
2022/10/24 05:32:17;;;;;;;;;;;15.00;99.90;;;;;;5061208;28;20788;-59
2022/10/24 05:34:44;;;;;;;;;;;15.00;99.90;;;;;;5061123;28;19935;-59
2022/10/24 05:37:11;;;;;;;;;;;15.00;99.90;;;;;;5062856;28;19929;-59
2022/10/24 05:39:37;;;;;;;;;;;15.00;99.90;;;;;;5062127;28;19939;-59
2022/10/24 05:42:04;;;;;;;;;;;15.00;99.90;;;;;;5061480;28;19929;-59
2022/10/24 05:44:31;;;;;;;;;;;15.00;99.90;;;;;;5060672;28;19960;-59
2022/10/24 05:46:59;;;;;;;;;;;15.00;99.90;;;;;;5060673;28;20462;-59
2022/10/24 05:49:25;;;;;;;;;;;14.90;99.90;;;;;;5061637;28;21064;-59
2022/10/24 05:51:52;;;;;;;;;;;14.90;99.90;;;;;;5060725;28;19928;-59
2022/10/24 05:54:19;;;;;;;;;;;14.90;99.90;;;;;;5061360;28;19928;-59
2022/10/24 05:56:45;;;;;;;;;;;14.90;99.90;;;;;;5060853;28;19929;-59
2022/10/24 05:59:12;;;;;;;;;;;15.00;99.90;;;;;;5061871;28;19943;-59
2022/10/24 06:01:39;;;;;;;;;;;14.90;99.90;;;;;;5060317;28;19929;-59
2022/10/24 06:04:07;;;;;;;;;;;15.00;99.90;;;;;;5060820;28;19928;-59
2022/10/24 06:06:38;;;;;;;;;;;15.00;99.90;;;;;;5061625;28;20501;-59
2022/10/24 06:09:04;;;;;;;;;;;15.00;99.90;;;;;;5061789;28;20730;-59
2022/10/24 06:11:31;;;;;;;;;;;15.00;99.90;;;;;;5061773;28;19928;-59
2022/10/24 06:13:58;;;;;;;;;;;15.00;99.90;;;;;;5061939;28;19928;-59
2022/10/24 06:16:26;;;;;;;;;;;15.10;99.90;;;;;;5059170;28;19928;-59
2022/10/24 06:18:53;;;;;;;;;;;15.00;99.90;;;;;;5061090;28;19933;-59
2022/10/24 06:21:21;;;;;;;;;;;15.00;99.90;;;;;;5061494;28;20372;-59
2022/10/24 06:23:47;;;;;;;;;;;15.00;99.90;;;;;;5059796;28;20430;-59
2022/10/24 06:26:14;;;;;;;;;;;15.00;99.90;;;;;;5059372;28;19929;-59
2022/10/24 06:28:41;;;;;;;;;;;15.00;99.90;;;;;;5058387;28;20382;-59
2022/10/24 06:31:07;;;;;;;;;;;15.00;99.90;;;;;;5059763;28;20364;-59
2022/10/24 06:33:34;;;;;;;;;;;15.00;99.90;;;;;;5059090;28;20004;-59
2022/10/24 06:36:03;;;;;;;;;;;15.00;99.90;;;;;;5058772;28;19929;-59
2022/10/24 06:38:31;;;;;;;;;;;15.00;99.90;;;;;;5060685;28;20083;-59
2022/10/24 06:40:58;;;;;;;;;;;15.00;99.90;;;;;;5059736;28;19933;-61
2022/10/24 06:43:25;;;;;;;;;;;15.00;99.90;;;;;;5058414;28;20003;-59
2022/10/24 06:45:51;;;;;;;;;;;15.00;99.90;;;;;;5058992;28;19929;-59
2022/10/24 06:48:18;;;;;;;;;;;15.00;99.90;;;;;;5058325;28;19932;-59
2022/10/24 06:50:44;;;;;;;;;;;15.00;99.90;;;;;;5060264;28;19929;-59
2022/10/24 06:53:11;;;;;;;;;;;15.00;99.90;;;;;;5060506;28;20795;-59
2022/10/24 06:55:40;;;;;;;;;;;15.10;99.90;;;;;;5057257;28;19935;-59
2022/10/24 06:58:06;;;;;;;;;;;15.10;99.90;;;;;;5054411;28;19933;-59
2022/10/24 07:00:33;;;;;;;;;;;15.10;99.90;;;;;;5048907;28;20562;-59
2022/10/24 07:03:00;;;;;;;;;;;15.10;99.90;;;;;;5052287;28;19928;-59
2022/10/24 07:05:27;;;;;;;;;;;15.20;99.90;;;;;;5054544;28;20918;-59
2022/10/24 07:07:53;;;;;;;;;;;15.20;99.90;;;;;;5056090;28;21277;-59
2022/10/24 07:10:20;;;;;;;;;;;15.30;99.90;;;;;;5056773;28;20996;-59
2022/10/24 07:12:48;;;;;;;;;;;15.30;99.90;;;;;;5057385;28;19929;-59
2022/10/24 07:15:15;;;;;;;;;;;15.40;99.90;;;;;;5057157;28;19936;-59
2022/10/24 07:17:42;;;;;;;;;;;15.40;99.90;;;;;;5056443;28;19933;-59
2022/10/24 07:20:09;;;;;;;;;;;15.30;99.90;;;;;;5056326;28;20306;-59
2022/10/24 07:22:36;;;;;;;;;;;15.30;99.90;;;;;;5056605;28;19928;-58
2022/10/24 07:25:03;;;;;;;;;;;15.30;99.90;;;;;;5057124;28;19929;-58
2022/10/24 07:27:30;;;;;;;;;;;15.40;99.90;;;;;;5056123;28;20361;-59
2022/10/24 07:29:58;;;;;;;;;;;15.40;99.90;;;;;;5056931;28;19929;-58
2022/10/24 07:32:25;;;;;;;;;;;15.40;99.90;;;;;;5055882;28;19929;-59
2022/10/24 07:34:51;;;;;;;;;;;15.50;99.90;;;;;;5056923;28;20457;-59
2022/10/24 07:37:18;;;;;;;;;;;15.50;99.90;;;;;;5055928;28;20810;-58
2022/10/24 07:39:45;;;;;;;;;;;15.60;99.90;;;;;;5056913;28;20407;-59
2022/10/24 07:42:12;;;;;;;;;;;15.60;99.90;;;;;;5056522;28;19928;-59
2022/10/24 07:44:39;;;;;;;;;;;15.60;99.90;;;;;;5055273;28;19928;-59
2022/10/24 07:47:08;;;;;;;;;;;15.70;99.90;;;;;;5057296;28;19933;-59
2022/10/24 07:49:35;;;;;;;;;;;15.70;99.90;;;;;;5055823;28;19936;-58
2022/10/24 07:52:02;;;;;;;;;;;15.70;99.90;;;;;;5055382;28;20367;-59
2022/10/24 07:54:29;;;;;;;;;;;15.70;99.90;;;;;;5056201;28;19935;-59
2022/10/24 07:56:55;;;;;;;;;;;15.80;99.90;;;;;;5056756;28;20497;-59
2022/10/24 07:59:22;;;;;;;;;;;15.80;99.90;;;;;;5055524;28;19928;-59
2022/10/24 08:01:49;;;;;;;;;;;15.80;99.90;;;;;;5054829;28;19929;-59
2022/10/24 08:04:17;;;;;;;;;;;15.80;99.90;;;;;;5055689;28;20045;-59
2022/10/24 08:06:43;;;;;;;;;;;15.80;99.90;;;;;;5054697;28;19942;-59
2022/10/24 08:09:10;;;;;;;;;;;15.80;99.90;;;;;;5054722;28;19934;-59
2022/10/24 08:11:37;;;;;;;;;;;15.80;99.90;;;;;;5056141;28;20043;-59
2022/10/24 08:14:03;;;;;;;;;;;15.80;99.90;;;;;;5054907;28;20081;-59
2022/10/24 08:16:30;;;;;;;;;;;15.80;99.90;;;;;;5054918;28;20094;-59
2022/10/24 08:18:57;;;;;;;;;;;15.90;99.90;;;;;;5056636;28;19928;-59
2022/10/24 08:21:25;;;;;;;;;;;15.90;99.90;;;;;;5055773;28;19936;-60
2022/10/24 08:23:53;;;;;;;;;;;15.90;99.90;;;;;;5055932;28;19937;-59
2022/10/24 08:26:20;;;;;;;;;;;15.90;99.90;;;;;;5055695;28;19932;-59
2022/10/24 08:28:48;;;;;;;;;;;15.90;99.90;;;;;;5055169;28;19928;-58
2022/10/24 08:31:15;;;;;;;;;;;15.90;99.90;;;;;;5055513;28;19932;-59
2022/10/24 08:33:42;;;;;;;;;;;15.90;99.90;;;;;;5054460;28;19929;-59
2022/10/24 08:36:14;;;;;;;;;;;15.90;99.90;;;;;;5055793;28;20020;-59
2022/10/24 08:38:42;;;;;;;;;;;15.90;99.90;;;;;;5052466;28;20034;-59
2022/10/24 08:41:10;;;;;;;;;;;15.90;99.90;;;;;;5051374;28;19928;-60
2022/10/24 08:43:37;;;;;;;;;;;15.90;99.90;;;;;;5050182;28;19929;-59
2022/10/24 08:46:08;;;;;;;;;;;15.90;99.90;;;;;;5051485;28;19933;-60
2022/10/24 08:48:37;;;;;;;;;;;15.90;99.90;;;;;;5052494;28;21740;-59
2022/10/24 08:51:11;;;;;;;;;;;15.90;99.90;;;;;;5052449;28;19929;-59
2022/10/24 08:53:38;;;;;;;;;;;15.90;99.90;;;;;;5053331;28;19929;-59
2022/10/24 08:56:09;;;;;;;;;;;15.90;99.90;;;;;;5051611;28;20378;-59
2022/10/24 08:58:37;;;;;;;;;;;16.00;99.90;;;;;;5052103;28;19929;-59
2022/10/24 09:01:07;;;;;;;;;;;15.90;99.90;;;;;;5053064;28;19935;-59
2022/10/24 09:03:35;;;;;;;;;;;16.00;99.90;;;;;;5052541;28;19932;-59
2022/10/24 09:06:03;;;;;;;;;;;16.00;99.90;;;;;;5052610;28;20112;-59
2022/10/24 09:08:32;;;;;;;;;;;16.10;99.90;;;;;;5052870;28;19929;-59
2022/10/24 09:10:59;;;;;;;;;;;16.00;99.90;;;;;;5051628;28;19935;-59
2022/10/24 09:13:28;;;;;;;;;;;16.00;99.90;;;;;;5052430;28;19928;-59
2022/10/24 09:15:55;;;;;;;;;;;15.90;99.90;;;;;;5052634;28;19932;-59
2022/10/24 09:18:22;;;;;;;;;;;15.90;99.90;;;;;;5051772;28;20399;-59
2022/10/24 09:20:50;;;;;;;;;;;15.90;99.90;;;;;;5052484;28;20374;-59
2022/10/24 09:23:17;;;;;;;;;;;15.90;99.90;;;;;;5051925;28;21599;-59
2022/10/24 09:25:45;;;;;;;;;;;15.90;99.90;;;;;;5053140;28;19940;-59
2022/10/24 09:28:12;;;;;;;;;;;16.00;99.90;;;;;;5051717;28;20475;-58
2022/10/24 09:30:40;;;;;;;;;;;16.00;99.90;;;;;;5052577;28;20234;-59
2022/10/24 09:33:13;;;;;;;;;;;16.00;99.90;;;;;;5051676;28;19951;-59
2022/10/24 09:35:40;;;;;;;;;;;16.10;99.90;;;;;;5052987;28;20015;-59
2022/10/24 09:38:27;;;;;;;;;;;16.20;99.90;;;;;;5052049;28;19936;-59
2022/10/24 09:40:55;;;;;;;;;;;16.30;99.90;;;;;;5052893;28;19939;-59
2022/10/24 09:43:23;;;;;;;;;;;16.40;99.90;;;;;;5052992;28;20383;-59
2022/10/24 09:45:52;;;;;;;;;;;16.50;99.90;;;;;;5052390;28;19943;-59
2022/10/24 09:48:21;;;;;;;;;;;16.60;99.90;;;;;;5052007;28;20055;-59
2022/10/24 09:50:49;;;;;;;;;;;16.60;99.90;;;;;;5052603;28;19929;-59
2022/10/24 09:53:21;;;;;;;;;;;16.60;99.90;;;;;;5052093;28;19933;-59
2022/10/24 09:55:50;;;;;;;;;;;16.60;99.90;;;;;;5053192;28;20054;-59
2022/10/24 09:58:18;;;;;;;;;;;16.60;99.90;;;;;;5051058;28;19928;-59
2022/10/24 10:00:55;;;;;;;;;;;16.70;99.90;;;;;;5052117;28;19935;-59
2022/10/24 10:03:24;;;;;;;;;;;16.60;99.90;;;;;;5052054;28;19971;-59
2022/10/24 10:05:53;;;;;;;;;;;16.60;99.90;;;;;;5052553;28;20401;-59
2022/10/24 10:08:20;;;;;;;;;;;16.60;99.90;;;;;;5052213;28;20036;-59
2022/10/24 10:11:08;;;;;;;;;;;16.50;99.90;;;;;;5052327;28;20331;-59
2022/10/24 10:13:39;;;;;;;;;;;16.50;99.90;;;;;;5046268;28;21676;-59
2022/10/24 10:16:07;;;;;;;;;;;16.40;99.90;;;;;;5050079;28;19932;-59
2022/10/24 10:18:42;;;;;;;;;;;16.40;99.90;;;;;;5051729;28;19929;-59
2022/10/24 10:21:10;;;;;;;;;;;16.40;99.90;;;;;;5051288;28;19936;-58
2022/10/24 10:23:39;;;;;;;;;;;16.40;99.90;;;;;;5052794;28;19929;-59
2022/10/24 10:26:13;;;;;;;;;;;16.50;99.90;;;;;;5051586;28;19939;-60
2022/10/24 10:28:43;;;;;;;;;;;16.40;99.90;;;;;;5051044;28;20388;-59
2022/10/24 10:31:10;;;;;;;;;;;16.40;99.90;;;;;;5051322;28;19929;-59
2022/10/24 10:33:44;;;;;;;;;;;16.40;99.90;;;;;;5051794;28;19929;-60
2022/10/24 10:36:13;;;;;;;;;;;16.30;99.90;;;;;;5051707;28;19939;-60
2022/10/24 10:38:43;;;;;;;;;;;16.30;99.90;;;;;;5051519;28;19929;-59
2022/10/24 10:41:14;;;;;;;;;;;16.20;99.90;;;;;;5052771;28;20089;-59
2022/10/24 10:43:43;;;;;;;;;;;16.20;99.90;;;;;;5043500;28;19971;-59
2022/10/24 10:46:16;;;;;;;;;;;16.10;99.90;;;;;;5050619;28;19932;-59
2022/10/24 10:48:51;;;;;;;;;;;16.10;99.90;;;;;;5051562;28;19929;-59
2022/10/24 10:51:23;;;;;;;;;;;16.00;99.90;;;;;;5047576;28;19979;-58
2022/10/24 10:53:52;;;;;;;;;;;16.00;99.90;;;;;;5051885;28;20380;-59
2022/10/24 10:56:24;;;;;;;;;;;16.00;99.90;;;;;;5049954;28;20746;-59
2022/10/24 10:58:58;;;;;;;;;;;15.90;99.90;;;;;;5050303;28;19928;-59
2022/10/24 11:01:31;;;;;;;;;;;16.00;99.90;;;;;;5049823;28;19987;-59
2022/10/24 11:04:06;;;;;;;;;;;16.00;99.90;;;;;;5048785;28;19929;-59
2022/10/24 11:06:37;;;;;;;;;;;16.10;99.90;;;;;;5047120;28;20055;-59
2022/10/24 11:09:12;;;;;;;;;;;16.20;99.90;;;;;;5050317;28;20933;-60
2022/10/24 11:11:41;;;;;;;;;;;16.20;99.90;;;;;;5050483;28;19935;-59
2022/10/24 11:14:21;;;;;;;;;;;16.30;99.90;;;;;;5048984;28;19929;-59
2022/10/24 11:16:50;;;;;;;;;;;16.30;99.90;;;;;;5050432;28;20811;-59
2022/10/24 11:19:24;;;;;;;;;;;16.40;99.90;;;;;;5047848;28;19944;-60
2022/10/24 11:21:51;;;;;;;;;;;16.40;99.90;;;;;;5048643;28;19928;-60
2022/10/24 11:24:20;;;;;;;;;;;16.40;99.90;;;;;;5049007;28;19998;-60
2022/10/24 11:26:50;;;;;;;;;;;16.30;99.90;;;;;;5047831;28;20434;-59
2022/10/24 11:29:21;;;;;;;;;;;16.30;99.90;;;;;;5048812;28;19929;-60
2022/10/24 11:31:48;;;;;;;;;;;16.30;99.90;;;;;;5049552;28;20387;-59
2022/10/24 11:34:17;;;;;;;;;;;16.30;99.90;;;;;;5050798;28;19928;-59
2022/10/24 11:36:48;;;;;;;;;;;16.30;99.90;;;;;;5050631;28;19932;-60
2022/10/24 11:39:18;;;;;;;;;;;16.30;99.90;;;;;;5050399;28;19967;-59
2022/10/24 11:41:47;;;;;;;;;;;16.20;99.90;;;;;;5048048;28;20392;-59
2022/10/24 11:44:32;;;;;;;;;;;16.20;99.90;;;;;;5049012;28;19929;-59
2022/10/24 11:47:01;;;;;;;;;;;16.20;99.90;;;;;;5035080;28;20028;-59
2022/10/24 11:49:30;;;;;;;;;;;16.20;99.90;;;;;;5050911;28;19928;-59
2022/10/24 11:52:00;;;;;;;;;;;16.20;99.90;;;;;;5051772;28;19929;-60
2022/10/24 11:54:30;;;;;;;;;;;16.20;99.90;;;;;;5053804;28;19943;-59
2022/10/24 11:56:59;;;;;;;;;;;16.20;99.90;;;;;;5052163;28;19940;-59
2022/10/24 11:59:26;;;;;;;;;;;16.20;99.90;;;;;;5053521;28;19971;-59
2022/10/24 12:02:03;;;;;;;;;;;16.20;99.90;;;;;;5053845;28;21489;-59
2022/10/24 12:04:52;;;;;;;;;;;16.20;99.90;;;;;;5053912;28;19929;-59
2022/10/24 12:07:39;;;;;;;;;;;16.20;99.90;;;;;;5054644;28;19939;-59
2022/10/24 12:10:18;;;;;;;;;;;16.20;99.90;;;;;;5052288;28;19935;-59
2022/10/24 12:12:52;;;;;;;;;;;16.20;99.90;;;;;;5053229;28;20473;-60
2022/10/24 12:15:26;;;;;;;;;;;16.20;99.90;;;;;;5053135;28;19929;-59
2022/10/24 12:17:59;;;;;;;;;;;16.20;99.90;;;;;;5054222;28;19932;-59
2022/10/24 12:20:26;;;;;;;;;;;16.30;99.90;;;;;;5053221;28;20052;-60
2022/10/24 12:22:53;;;;;;;;;;;16.30;99.90;;;;;;5052302;28;19944;-59
2022/10/24 12:25:27;;;;;;;;;;;16.30;99.90;;;;;;5053043;28;19940;-60
2022/10/24 12:27:55;;;;;;;;;;;16.30;99.90;;;;;;5054067;28;20070;-59
2022/10/24 12:30:24;;;;;;;;;;;16.30;99.90;;;;;;5054422;28;20323;-59
2022/10/24 12:32:53;;;;;;;;;;;16.40;99.90;;;;;;5054598;28;19929;-59
2022/10/24 12:35:32;;;;;;;;;;;16.40;99.90;;;;;;5053524;28;19935;-59
2022/10/24 12:37:59;;;;;;;;;;;16.30;99.90;;;;;;5052747;28;19976;-59
2022/10/24 12:40:44;;;;;;;;;;;16.30;99.90;;;;;;5051952;28;20023;-59
2022/10/24 12:43:26;;;;;;;;;;;16.30;99.90;;;;;;5053038;28;19933;-59
2022/10/24 12:45:53;;;;;;;;;;;16.20;99.90;;;;;;5052773;28;19935;-59
2022/10/24 12:48:30;;;;;;;;;;;16.30;99.90;;;;;;5052978;28;19933;-60
2022/10/24 12:51:02;;;;;;;;;;;16.30;99.90;;;;;;5053079;28;20012;-59
2022/10/24 12:53:31;;;;;;;;;;;16.30;99.90;;;;;;5052834;28;21684;-60
2022/10/24 12:56:05;;;;;;;;;;;16.40;99.90;;;;;;5053537;28;19975;-59
2022/10/24 12:58:34;;;;;;;;;;;16.40;99.90;;;;;;5052917;28;20094;-60
2022/10/24 13:01:03;;;;;;;;;;;16.50;99.90;;;;;;5053545;28;19971;-59
2022/10/24 13:03:38;;;;;;;;;;;16.50;99.90;;;;;;5052497;28;19938;-59
2022/10/24 13:06:06;;;;;;;;;;;16.50;99.90;;;;;;5043569;28;19928;-59
2022/10/24 13:08:42;;;;;;;;;;;16.50;99.90;;;;;;5045208;28;19933;-60
2022/10/24 13:11:20;;;;;;;;;;;16.50;99.90;;;;;;5045382;28;20324;-60
2022/10/24 13:13:53;;;;;;;;;;;16.50;99.90;;;;;;5046334;28;19933;-59
2022/10/24 13:16:24;;;;;;;;;;;16.50;99.90;;;;;;5047525;28;19928;-60
2022/10/24 13:18:57;;;;;;;;;;;16.50;99.90;;;;;;5046575;28;21391;-59
2022/10/24 13:21:27;;;;;;;;;;;16.50;99.90;;;;;;5046953;28;19929;-59
2022/10/24 13:24:08;;;;;;;;;;;16.50;99.90;;;;;;5048694;28;19933;-59
2022/10/24 13:26:38;;;;;;;;;;;16.40;99.90;;;;;;5048011;28;20430;-59
2022/10/24 13:29:11;;;;;;;;;;;16.40;99.90;;;;;;5048371;28;20097;-60
2022/10/24 13:31:55;;;;;;;;;;;16.40;99.90;;;;;;5048491;28;19929;-59
2022/10/24 13:34:24;;;;;;;;;;;16.40;99.90;;;;;;5048996;28;19928;-60
2022/10/24 13:36:53;;;;;;;;;;;16.30;99.90;;;;;;5049407;28;20547;-59
2022/10/24 13:39:23;;;;;;;;;;;16.30;99.90;;;;;;5050835;28;20470;-59
2022/10/24 13:41:56;;;;;;;;;;;16.30;99.90;;;;;;5050343;28;19936;-59
2022/10/24 13:44:26;;;;;;;;;;;16.20;99.90;;;;;;5050160;28;19929;-60
2022/10/24 13:46:55;;;;;;;;;;;16.20;99.90;;;;;;5052003;28;19936;-59
2022/10/24 13:49:25;;;;;;;;;;;16.20;99.90;;;;;;5049490;28;20029;-59
2022/10/24 13:51:52;;;;;;;;;;;16.20;99.90;;;;;;5051557;28;20394;-59
2022/10/24 13:54:21;;;;;;;;;;;16.20;99.90;;;;;;5051528;28;19928;-59
2022/10/24 13:56:48;;;;;;;;;;;16.20;99.90;;;;;;5051021;28;20460;-59
2022/10/24 13:59:29;;;;;;;;;;;16.20;99.90;;;;;;5052339;28;19943;-60
2022/10/24 14:01:56;;;;;;;;;;;16.20;99.90;;;;;;5051754;28;19932;-59
2022/10/24 14:04:23;;;;;;;;;;;16.10;99.90;;;;;;5052076;28;19929;-60
2022/10/24 14:06:50;;;;;;;;;;;16.10;99.90;;;;;;5053432;28;19929;-59
2022/10/24 14:09:17;;;;;;;;;;;16.10;99.90;;;;;;5052927;28;19940;-59
2022/10/24 14:11:44;;;;;;;;;;;16.20;99.90;;;;;;5051478;28;19940;-60
2022/10/24 14:14:20;;;;;;;;;;;16.20;99.90;;;;;;5050506;28;19933;-59
2022/10/24 14:17:04;;;;;;;;;;;16.20;99.90;;;;;;5051192;28;19928;-59
2022/10/24 14:19:32;;;;;;;;;;;16.20;99.90;;;;;;5051845;28;20453;-60
2022/10/24 14:21:59;;;;;;;;;;;16.20;99.90;;;;;;5049721;28;19929;-59
2022/10/24 14:24:25;;;;;;;;;;;16.20;99.90;;;;;;5049977;28;20330;-59
2022/10/24 14:26:55;;;;;;;;;;;16.20;99.90;;;;;;5051844;28;20753;-60